createdAt,value
2023-01-03T00:02:09.362Z,5.22
2023-01-03T00:08:12.843Z,5.30
2023-01-03T00:14:17.757Z,4.57
2023-01-03T00:20:22.769Z,4.90
2023-01-03T00:26:26.236Z,5.25
2023-01-03T00:32:29.616Z,5.15
2023-01-03T00:38:34.437Z,4.45
2023-01-03T00:44:37.833Z,4.68
2023-01-03T00:50:41.221Z,5.13
2023-01-03T00:56:46.775Z,5.43
2023-01-03T01:02:50.402Z,5.63
2023-01-03T01:08:55.368Z,5.57
2023-01-03T01:15:00.303Z,5.75
2023-01-03T01:21:05.744Z,5.10
2023-01-03T01:27:09.197Z,5.43
2023-01-03T01:33:14.092Z,5.88
2023-01-03T01:39:18.380Z,6.25
2023-01-03T01:45:21.811Z,6.35
2023-01-03T01:51:28.336Z,5.95
2023-01-03T01:57:32.475Z,6.28
2023-01-03T02:03:35.897Z,6.63
2023-01-03T02:09:41.220Z,6.55
2023-01-03T02:15:52.350Z,7.00
2023-01-03T02:22:05.166Z,6.70
2023-01-03T02:28:23.444Z,7.65
2023-01-03T02:34:34.336Z,7.20
2023-01-03T02:40:40.415Z,8.07
2023-01-03T02:46:45.410Z,8.25
2023-01-03T02:52:51.998Z,8.55
2023-01-03T02:58:57.191Z,8.05
2023-01-03T03:05:02.856Z,7.95
2023-01-03T03:11:25.575Z,7.88
2023-01-03T03:17:30.919Z,7.45
2023-01-03T03:23:53.685Z,9.07
2023-01-03T03:29:59.846Z,7.93
2023-01-03T03:36:07.662Z,7.43
2023-01-03T03:42:34.472Z,6.93
2023-01-03T03:48:55.475Z,7.03
2023-01-03T03:55:00.174Z,7.22
2023-01-03T04:01:04.223Z,6.90
2023-01-03T04:07:09.175Z,7.05
2023-01-03T04:13:12.591Z,5.93
2023-01-03T04:19:16.035Z,5.57
2023-01-03T04:25:20.833Z,5.35
2023-01-03T04:31:24.375Z,6.18
2023-01-03T04:37:27.981Z,5.72
2023-01-03T04:43:46.675Z,6.25
2023-01-03T04:49:50.178Z,6.50
2023-01-03T04:55:54.071Z,6.50
2023-01-03T05:01:58.946Z,5.78
2023-01-03T05:08:05.166Z,6.85
2023-01-03T05:14:14.165Z,5.80
2023-01-03T05:20:37.009Z,6.50
2023-01-03T05:26:41.692Z,6.00
2023-01-03T05:32:45.070Z,6.13
2023-01-03T05:38:49.939Z,5.18
2023-01-03T05:44:53.615Z,5.97
2023-01-03T05:50:58.706Z,5.68
2023-01-03T05:57:03.573Z,6.20
2023-01-03T06:03:07.034Z,6.43
2023-01-03T06:09:10.569Z,6.35
2023-01-03T06:15:15.414Z,5.97
2023-01-03T06:21:18.843Z,5.85
2023-01-03T06:27:22.481Z,5.97
2023-01-03T06:33:27.317Z,7.57
2023-01-03T06:39:30.830Z,4.82
2023-01-03T06:45:51.829Z,6.63
2023-01-03T06:52:14.137Z,4.80
2023-01-03T06:58:17.579Z,4.78
2023-01-03T07:04:21.800Z,6.78
2023-01-03T07:10:26.847Z,6.88
2023-01-03T07:16:31.116Z,5.43
2023-01-03T07:22:34.916Z,6.43
2023-01-03T07:28:39.668Z,6.80
2023-01-03T07:34:43.089Z,6.70
2023-01-03T07:40:46.849Z,5.45
2023-01-03T07:46:51.725Z,7.13
2023-01-03T07:52:55.481Z,7.90
2023-01-03T07:58:58.872Z,8.07
2023-01-03T08:05:03.698Z,7.85
2023-01-03T08:11:24.899Z,7.72
2023-01-03T08:17:29.571Z,7.07
2023-01-03T08:23:34.636Z,7.13
2023-01-03T08:29:38.182Z,6.93
2023-01-03T08:35:42.983Z,7.05
2023-01-03T08:41:49.174Z,9.57
2023-01-03T08:47:53.951Z,6.40
2023-01-03T08:53:57.568Z,5.95
2023-01-03T09:00:02.410Z,5.93
2023-01-03T09:06:06.479Z,5.18
2023-01-03T09:12:09.871Z,4.32
2023-01-03T09:18:14.961Z,5.10
2023-01-03T09:24:18.719Z,4.63
2023-01-03T09:30:22.195Z,4.85
2023-01-03T09:36:26.999Z,4.70
2023-01-03T09:42:48.599Z,5.13
2023-01-03T09:48:52.752Z,4.00
2023-01-03T09:55:15.728Z,4.60
2023-01-03T10:01:41.405Z,3.80
2023-01-03T10:07:51.875Z,3.45
2023-01-03T10:14:04.164Z,3.45
2023-01-03T10:20:21.150Z,3.75
2023-01-03T10:26:32.453Z,3.13
2023-01-03T10:32:44.779Z,3.53
2023-01-03T10:38:53.157Z,4.20
2023-01-03T10:45:01.869Z,1.73
2023-01-03T10:51:24.965Z,2.30
2023-01-03T10:57:39.225Z,3.72
2023-01-03T11:03:51.095Z,5.03
2023-01-03T11:09:56.828Z,3.80
2023-01-03T11:16:01.047Z,3.08
2023-01-03T11:22:07.180Z,3.45
2023-01-03T11:28:20.178Z,2.67
2023-01-03T11:34:55.125Z,2.75
2023-01-03T11:41:03.637Z,3.15
2023-01-03T11:47:14.747Z,2.38
2023-01-03T11:53:23.142Z,2.88
2023-01-03T11:59:46.357Z,2.90
2023-01-03T12:05:53.268Z,2.38
2023-01-03T12:12:11.529Z,2.50
2023-01-03T12:18:20.229Z,2.42
2023-01-03T12:24:32.567Z,2.30
2023-01-03T12:30:39.950Z,2.00
2023-01-03T12:36:47.161Z,2.38
2023-01-03T12:42:57.522Z,2.20
2023-01-03T12:49:04.179Z,2.40
2023-01-03T12:55:15.079Z,1.90
2023-01-03T13:01:23.886Z,2.30
2023-01-03T13:07:30.015Z,2.20
2023-01-03T13:13:34.211Z,2.47
2023-01-03T13:19:58.611Z,2.45
2023-01-03T13:26:35.146Z,2.33
2023-01-03T13:32:48.972Z,2.03
2023-01-03T13:38:53.787Z,1.95
2023-01-03T13:44:57.884Z,2.55
2023-01-03T13:51:10.890Z,2.80
2023-01-03T13:57:29.129Z,2.60
2023-01-03T14:03:59.805Z,2.28
2023-01-03T14:10:13.006Z,2.00
2023-01-03T14:16:20.823Z,1.63
2023-01-03T14:22:31.588Z,1.50
2023-01-03T14:28:36.018Z,1.20
2023-01-03T14:34:42.947Z,1.40
2023-01-03T14:40:49.524Z,1.25
2023-01-03T14:46:54.665Z,1.85
2023-01-03T14:52:59.195Z,1.05
2023-01-03T14:59:04.183Z,1.20
2023-01-03T15:05:18.002Z,1.73
2023-01-03T15:11:26.080Z,1.48
2023-01-03T15:17:30.881Z,1.50
2023-01-03T15:23:42.055Z,1.63
2023-01-03T15:29:46.192Z,1.35
2023-01-03T15:35:52.517Z,1.73
2023-01-03T15:48:43.212Z,2.28
2023-01-03T15:54:48.139Z,2.13
2023-01-03T16:00:51.768Z,1.90
2023-01-03T16:06:56.192Z,1.60
2023-01-03T16:13:01.012Z,1.77
2023-01-03T16:19:06.934Z,1.60
2023-01-03T16:25:15.792Z,1.80
2023-01-03T16:31:22.400Z,1.85
2023-01-03T16:37:27.078Z,1.70
2023-01-03T16:43:30.487Z,1.40
2023-01-03T16:49:36.056Z,1.58
2023-01-03T16:55:40.641Z,1.70
2023-01-03T17:01:44.145Z,1.67
2023-01-03T17:07:49.405Z,1.15
2023-01-03T17:13:53.286Z,1.48
2023-01-03T17:20:05.996Z,1.67
2023-01-03T17:26:14.702Z,2.22
2023-01-03T17:32:18.936Z,1.98
2023-01-03T17:38:26.935Z,1.38
2023-01-03T17:44:32.045Z,2.08
2023-01-03T17:50:35.543Z,1.58
2023-01-03T17:56:40.645Z,2.13
2023-01-03T18:02:45.690Z,1.83
2023-01-03T18:08:49.631Z,1.67
2023-01-03T18:14:53.012Z,2.67
2023-01-03T18:20:58.777Z,2.08
2023-01-03T18:27:02.273Z,3.92
2023-01-03T18:33:05.779Z,4.53
2023-01-03T18:39:14.944Z,2.80
2023-01-03T18:45:18.375Z,3.78
2023-01-03T18:51:23.337Z,3.03
2023-01-03T18:57:28.093Z,3.13
2023-01-03T19:03:32.668Z,2.50
2023-01-03T19:09:37.140Z,2.95
2023-01-03T19:15:42.181Z,4.60
2023-01-03T19:21:47.702Z,3.63
2023-01-03T19:27:53.419Z,5.13
2023-01-03T19:33:58.307Z,3.03
2023-01-03T19:40:01.772Z,2.22
2023-01-03T19:46:05.453Z,3.30
2023-01-03T19:52:10.314Z,3.22
2023-01-03T19:58:16.966Z,3.08
2023-01-03T20:04:20.539Z,2.33
2023-01-03T20:10:26.473Z,2.40
2023-01-03T20:16:29.929Z,2.75
2023-01-03T20:28:58.946Z,2.53
2023-01-03T20:35:26.847Z,2.53
2023-01-03T20:41:36.348Z,2.67
2023-01-03T20:47:42.105Z,2.80
2023-01-03T20:53:49.292Z,2.05
2023-01-03T20:59:57.420Z,2.60
2023-01-03T21:06:02.249Z,2.05
2023-01-03T21:12:06.235Z,2.15
2023-01-03T21:18:12.824Z,1.85
2023-01-03T21:24:18.925Z,2.22
2023-01-03T21:30:23.905Z,1.98
2023-01-03T21:36:28.747Z,2.33
2023-01-03T21:42:51.310Z,1.70
2023-01-03T21:48:55.200Z,2.63
2023-01-03T21:54:58.615Z,2.08
2023-01-03T22:01:11.476Z,1.85
2023-01-03T22:07:14.962Z,2.38
2023-01-03T22:13:19.074Z,1.60
2023-01-03T22:19:24.253Z,1.65
2023-01-03T22:25:27.749Z,1.63
2023-01-03T22:31:31.389Z,1.27
2023-01-03T22:37:36.177Z,1.58
2023-01-03T22:43:39.569Z,1.50
2023-01-03T22:49:42.946Z,1.30
2023-01-03T22:55:47.891Z,1.80
2023-01-03T23:01:51.420Z,1.25
2023-01-03T23:07:54.953Z,1.33
2023-01-03T23:14:01.009Z,1.17
2023-01-03T23:20:04.439Z,1.38
2023-01-03T23:26:08.039Z,1.00
2023-01-03T23:32:12.795Z,1.13
2023-01-03T23:38:16.260Z,0.90
2023-01-03T23:44:19.764Z,1.10
2023-01-03T23:50:24.616Z,1.08
2023-01-03T23:56:27.989Z,0.95
